High wind

Not for real navigation. The accuracy of this data is not assured See disclaimer for more information



ICAO NAME COUNTRY WIND Kt GUST Kt VIS m TEMP/DEW C BARO METAR
CWRU Solander Island Meteorological Canada 40 46 9999 11/0 29.92 CWRU 160700Z AUTO 06040G46KT 11/ RMK AO1 6PAST HR 8018 PK WND 06046/0650 SLP987 P0002 T0105 50006
CWWL Bonilla Island Meteorological Canada 37 46 9999 11/10 29.92 CWWL 160700Z AUTO 15037G46KT 11/10 RMK AO1 4PAST HR 8007 PK WND 15046/0655 SLP934 P0002 T01110100 50
CWGT Sisters Island Automatic Weath Canada 37 43 9999 11/9 29.92 CWGT 160700Z AUTO 11037G43KT 11/09 RMK AO1 PK WND 11043/0655 SLP068 T01140092 58022
CWLP Herbert Island Meteorological Canada 36 44 9999 11/8 29.92 CWLP 160700Z AUTO 12036G44KT 11/08 RMK AO1 2PAST HR 6012 PK WND 11051/0628 SLP017 P0001 T01130077 50
BIVM Vestmannaeyjar Iceland 36 50 9000 9/9 29.23 BIVM 160700Z 09036G50KT 9000 RA BKN015 OVC035 09/09 Q0990

Show more